sensor_id;sensor_type;location;lat;lon;timestamp;temperature;humidity
9103;DHT22;4587;51.434;6.788;2023-04-03T00:00:41;3.10;99.90
9103;DHT22;4587;51.434;6.788;2023-04-03T00:03:07;3.10;99.90
9103;DHT22;4587;51.434;6.788;2023-04-03T00:05:33;3.10;99.90
9103;DHT22;4587;51.434;6.788;2023-04-03T00:07:59;3.10;99.90
9103;DHT22;4587;51.434;6.788;2023-04-03T00:10:28;3.10;99.90
9103;DHT22;4587;51.434;6.788;2023-04-03T00:12:54;3.00;99.90
9103;DHT22;4587;51.434;6.788;2023-04-03T00:15:20;3.10;99.90
9103;DHT22;4587;51.434;6.788;2023-04-03T00:17:45;3.10;99.90
9103;DHT22;4587;51.434;6.788;2023-04-03T00:20:11;3.20;99.90
9103;DHT22;4587;51.434;6.788;2023-04-03T00:22:37;3.20;99.90
9103;DHT22;4587;51.434;6.788;2023-04-03T00:25:03;3.10;99.90
9103;DHT22;4587;51.434;6.788;2023-04-03T00:27:29;3.00;99.90
9103;DHT22;4587;51.434;6.788;2023-04-03T00:29:55;3.00;99.90
9103;DHT22;4587;51.434;6.788;2023-04-03T00:32:21;3.00;99.90
9103;DHT22;4587;51.434;6.788;2023-04-03T00:34:46;3.00;99.90
9103;DHT22;4587;51.434;6.788;2023-04-03T00:37:12;3.00;99.90
9103;DHT22;4587;51.434;6.788;2023-04-03T00:39:37;3.00;99.90
9103;DHT22;4587;51.434;6.788;2023-04-03T00:42:03;3.00;99.90
9103;DHT22;4587;51.434;6.788;2023-04-03T00:47:02;2.90;99.90
9103;DHT22;4587;51.434;6.788;2023-04-03T00:49:29;2.90;99.90
9103;DHT22;4587;51.434;6.788;2023-04-03T00:51:55;2.90;99.90
9103;DHT22;4587;51.434;6.788;2023-04-03T00:54:22;2.80;99.90
9103;DHT22;4587;51.434;6.788;2023-04-03T00:56:49;2.80;99.90
9103;DHT22;4587;51.434;6.788;2023-04-03T00:59:22;2.90;99.90
9103;DHT22;4587;51.434;6.788;2023-04-03T01:01:52;3.00;99.90
9103;DHT22;4587;51.434;6.788;2023-04-03T01:04:40;3.00;99.90
9103;DHT22;4587;51.434;6.788;2023-04-03T01:07:19;3.10;99.90
9103;DHT22;4587;51.434;6.788;2023-04-03T01:09:47;3.10;99.90
9103;DHT22;4587;51.434;6.788;2023-04-03T01:12:25;3.20;99.90
9103;DHT22;4587;51.434;6.788;2023-04-03T01:14:57;3.30;99.90
9103;DHT22;4587;51.434;6.788;2023-04-03T01:17:36;3.40;99.90
9103;DHT22;4587;51.434;6.788;2023-04-03T01:25:10;3.30;99.90
9103;DHT22;4587;51.434;6.788;2023-04-03T01:27:35;3.30;99.90
9103;DHT22;4587;51.434;6.788;2023-04-03T01:30:01;3.30;99.90
9103;DHT22;4587;51.434;6.788;2023-04-03T01:32:27;3.40;99.90
9103;DHT22;4587;51.434;6.788;2023-04-03T01:34:53;3.40;99.90
9103;DHT22;4587;51.434;6.788;2023-04-03T01:37:19;3.40;99.90
9103;DHT22;4587;51.434;6.788;2023-04-03T01:39:45;3.40;99.90
9103;DHT22;4587;51.434;6.788;2023-04-03T01:42:10;3.30;99.90
9103;DHT22;4587;51.434;6.788;2023-04-03T01:44:36;3.30;99.90
9103;DHT22;4587;51.434;6.788;2023-04-03T01:47:06;3.20;99.90
9103;DHT22;4587;51.434;6.788;2023-04-03T01:49:32;3.30;99.90
9103;DHT22;4587;51.434;6.788;2023-04-03T01:51:58;4.20;99.90
9103;DHT22;4587;51.434;6.788;2023-04-03T01:54:24;3.40;99.90
9103;DHT22;4587;51.434;6.788;2023-04-03T01:56:51;3.50;99.90
9103;DHT22;4587;51.434;6.788;2023-04-03T01:59:16;3.50;99.90
9103;DHT22;4587;51.434;6.788;2023-04-03T02:01:43;3.50;99.90
9103;DHT22;4587;51.434;6.788;2023-04-03T02:04:11;3.50;99.90
9103;DHT22;4587;51.434;6.788;2023-04-03T02:06:37;3.60;99.90
9103;DHT22;4587;51.434;6.788;2023-04-03T02:09:03;3.60;99.90
9103;DHT22;4587;51.434;6.788;2023-04-03T02:11:29;3.60;99.90
9103;DHT22;4587;51.434;6.788;2023-04-03T02:13:55;3.50;99.90
9103;DHT22;4587;51.434;6.788;2023-04-03T02:16:21;3.40;99.90
9103;DHT22;4587;51.434;6.788;2023-04-03T02:18:46;3.40;99.90
9103;DHT22;4587;51.434;6.788;2023-04-03T02:21:12;3.30;99.90
9103;DHT22;4587;51.434;6.788;2023-04-03T02:23:38;3.40;99.90
9103;DHT22;4587;51.434;6.788;2023-04-03T02:26:09;3.30;99.90
9103;DHT22;4587;51.434;6.788;2023-04-03T02:28:35;3.20;99.90
9103;DHT22;4587;51.434;6.788;2023-04-03T02:31:02;3.20;99.90
9103;DHT22;4587;51.434;6.788;2023-04-03T02:33:27;3.10;99.90
9103;DHT22;4587;51.434;6.788;2023-04-03T02:35:56;3.20;99.90
9103;DHT22;4587;51.434;6.788;2023-04-03T02:38:23;3.20;99.90
9103;DHT22;4587;51.434;6.788;2023-04-03T02:40:49;3.20;99.90
9103;DHT22;4587;51.434;6.788;2023-04-03T02:43:15;3.20;99.90
9103;DHT22;4587;51.434;6.788;2023-04-03T02:45:41;3.30;99.90
9103;DHT22;4587;51.434;6.788;2023-04-03T02:48:06;3.30;99.90
9103;DHT22;4587;51.434;6.788;2023-04-03T02:50:32;3.20;99.90
9103;DHT22;4587;51.434;6.788;2023-04-03T02:52:58;3.20;99.90
9103;DHT22;4587;51.434;6.788;2023-04-03T02:55:23;3.10;99.90
9103;DHT22;4587;51.434;6.788;2023-04-03T02:57:49;3.20;99.90
9103;DHT22;4587;51.434;6.788;2023-04-03T03:00:15;3.10;99.90
9103;DHT22;4587;51.434;6.788;2023-04-03T03:02:41;3.20;99.90
9103;DHT22;4587;51.434;6.788;2023-04-03T03:05:07;3.10;99.90
9103;DHT22;4587;51.434;6.788;2023-04-03T03:07:33;3.10;99.90
9103;DHT22;4587;51.434;6.788;2023-04-03T03:09:59;3.10;99.90
9103;DHT22;4587;51.434;6.788;2023-04-03T03:12:24;3.00;99.90
9103;DHT22;4587;51.434;6.788;2023-04-03T03:14:50;3.10;99.90
9103;DHT22;4587;51.434;6.788;2023-04-03T03:17:17;3.10;99.90
9103;DHT22;4587;51.434;6.788;2023-04-03T03:19:43;3.00;99.90
9103;DHT22;4587;51.434;6.788;2023-04-03T03:22:08;3.00;99.90
9103;DHT22;4587;51.434;6.788;2023-04-03T03:24:34;2.90;99.90
9103;DHT22;4587;51.434;6.788;2023-04-03T03:27:00;2.90;99.90
9103;DHT22;4587;51.434;6.788;2023-04-03T03:29:25;3.00;99.90
9103;DHT22;4587;51.434;6.788;2023-04-03T03:31:51;2.90;99.90
9103;DHT22;4587;51.434;6.788;2023-04-03T03:34:17;2.80;99.90
9103;DHT22;4587;51.434;6.788;2023-04-03T03:36:43;2.90;99.90
9103;DHT22;4587;51.434;6.788;2023-04-03T03:39:09;2.90;99.90
9103;DHT22;4587;51.434;6.788;2023-04-03T03:41:35;2.90;99.90
9103;DHT22;4587;51.434;6.788;2023-04-03T03:44:01;2.90;99.90
9103;DHT22;4587;51.434;6.788;2023-04-03T03:46:26;2.90;99.90
9103;DHT22;4587;51.434;6.788;2023-04-03T03:48:52;2.80;99.90
9103;DHT22;4587;51.434;6.788;2023-04-03T03:51:18;2.80;99.90
9103;DHT22;4587;51.434;6.788;2023-04-03T03:53:43;2.70;99.90
9103;DHT22;4587;51.434;6.788;2023-04-03T03:56:10;2.80;99.90
9103;DHT22;4587;51.434;6.788;2023-04-03T03:58:38;2.80;99.90
9103;DHT22;4587;51.434;6.788;2023-04-03T04:01:05;2.80;99.90
9103;DHT22;4587;51.434;6.788;2023-04-03T04:03:32;2.80;99.90
9103;DHT22;4587;51.434;6.788;2023-04-03T04:05:58;2.90;99.90
9103;DHT22;4587;51.434;6.788;2023-04-03T04:08:24;3.00;99.90
9103;DHT22;4587;51.434;6.788;2023-04-03T04:10:50;2.90;99.90
9103;DHT22;4587;51.434;6.788;2023-04-03T04:13:16;2.90;99.90
9103;DHT22;4587;51.434;6.788;2023-04-03T04:15:42;2.90;99.90
9103;DHT22;4587;51.434;6.788;2023-04-03T04:18:08;2.80;99.90
9103;DHT22;4587;51.434;6.788;2023-04-03T04:20:34;2.70;99.90
9103;DHT22;4587;51.434;6.788;2023-04-03T04:23:00;2.70;99.90
9103;DHT22;4587;51.434;6.788;2023-04-03T04:25:25;2.60;99.90
9103;DHT22;4587;51.434;6.788;2023-04-03T04:27:51;2.70;99.90
9103;DHT22;4587;51.434;6.788;2023-04-03T04:30:17;2.70;99.90
9103;DHT22;4587;51.434;6.788;2023-04-03T04:32:42;2.80;99.90
9103;DHT22;4587;51.434;6.788;2023-04-03T04:35:08;2.70;99.90
9103;DHT22;4587;51.434;6.788;2023-04-03T04:37:35;2.80;99.90
9103;DHT22;4587;51.434;6.788;2023-04-03T04:40:01;2.80;99.90
9103;DHT22;4587;51.434;6.788;2023-04-03T04:42:27;2.70;99.90
9103;DHT22;4587;51.434;6.788;2023-04-03T04:44:52;2.60;99.90
9103;DHT22;4587;51.434;6.788;2023-04-03T04:47:18;2.60;99.90
9103;DHT22;4587;51.434;6.788;2023-04-03T04:49:44;2.60;99.90
9103;DHT22;4587;51.434;6.788;2023-04-03T04:52:10;2.40;99.90
9103;DHT22;4587;51.434;6.788;2023-04-03T04:54:36;2.40;99.90
9103;DHT22;4587;51.434;6.788;2023-04-03T04:57:01;2.30;99.90
9103;DHT22;4587;51.434;6.788;2023-04-03T04:59:30;2.30;99.90
9103;DHT22;4587;51.434;6.788;2023-04-03T05:01:56;2.20;99.90
9103;DHT22;4587;51.434;6.788;2023-04-03T05:04:21;2.20;99.90
9103;DHT22;4587;51.434;6.788;2023-04-03T05:06:47;2.20;99.90
9103;DHT22;4587;51.434;6.788;2023-04-03T05:09:13;2.30;99.90
9103;DHT22;4587;51.434;6.788;2023-04-03T05:11:39;2.30;99.90
9103;DHT22;4587;51.434;6.788;2023-04-03T05:14:04;2.30;99.90
9103;DHT22;4587;51.434;6.788;2023-04-03T05:16:33;2.40;99.90
9103;DHT22;4587;51.434;6.788;2023-04-03T05:18:59;2.50;99.90
9103;DHT22;4587;51.434;6.788;2023-04-03T05:21:25;2.60;99.90
9103;DHT22;4587;51.434;6.788;2023-04-03T05:23:53;2.50;99.90
9103;DHT22;4587;51.434;6.788;2023-04-03T05:26:18;2.60;99.90
9103;DHT22;4587;51.434;6.788;2023-04-03T05:28:44;2.60;99.90
9103;DHT22;4587;51.434;6.788;2023-04-03T05:31:10;2.60;99.90
9103;DHT22;4587;51.434;6.788;2023-04-03T05:33:35;2.70;99.90
9103;DHT22;4587;51.434;6.788;2023-04-03T05:36:05;2.70;99.90
9103;DHT22;4587;51.434;6.788;2023-04-03T05:38:31;2.60;99.90
9103;DHT22;4587;51.434;6.788;2023-04-03T05:40:57;2.60;99.90
9103;DHT22;4587;51.434;6.788;2023-04-03T05:43:22;2.70;99.90
9103;DHT22;4587;51.434;6.788;2023-04-03T05:45:48;2.80;99.90
9103;DHT22;4587;51.434;6.788;2023-04-03T05:48:14;2.80;99.90
9103;DHT22;4587;51.434;6.788;2023-04-03T05:50:39;2.80;99.90
9103;DHT22;4587;51.434;6.788;2023-04-03T05:53:09;2.90;99.90
9103;DHT22;4587;51.434;6.788;2023-04-03T05:55:39;2.90;99.90
9103;DHT22;4587;51.434;6.788;2023-04-03T05:58:04;3.00;99.90
9103;DHT22;4587;51.434;6.788;2023-04-03T06:00:33;3.50;99.90
9103;DHT22;4587;51.434;6.788;2023-04-03T06:02:59;4.00;99.90
9103;DHT22;4587;51.434;6.788;2023-04-03T06:05:24;4.30;99.90
9103;DHT22;4587;51.434;6.788;2023-04-03T06:07:50;4.70;99.90
9103;DHT22;4587;51.434;6.788;2023-04-03T06:10:16;4.90;99.90
9103;DHT22;4587;51.434;6.788;2023-04-03T06:12:42;5.20;99.90
9103;DHT22;4587;51.434;6.788;2023-04-03T06:15:08;5.50;99.90
9103;DHT22;4587;51.434;6.788;2023-04-03T06:17:36;5.60;99.90
9103;DHT22;4587;51.434;6.788;2023-04-03T06:20:03;5.80;99.90
9103;DHT22;4587;51.434;6.788;2023-04-03T06:22:29;6.10;99.90
9103;DHT22;4587;51.434;6.788;2023-04-03T06:24:56;6.40;99.90
9103;DHT22;4587;51.434;6.788;2023-04-03T06:27:22;6.60;99.90
9103;DHT22;4587;51.434;6.788;2023-04-03T06:29:48;6.70;99.90
9103;DHT22;4587;51.434;6.788;2023-04-03T06:32:15;6.60;99.90
9103;DHT22;4587;51.434;6.788;2023-04-03T06:34:41;6.80;99.90
9103;DHT22;4587;51.434;6.788;2023-04-03T06:37:14;7.30;99.90
9103;DHT22;4587;51.434;6.788;2023-04-03T06:39:40;7.80;99.90
9103;DHT22;4587;51.434;6.788;2023-04-03T06:42:05;8.00;99.90
9103;DHT22;4587;51.434;6.788;2023-04-03T06:44:31;8.10;99.90
9103;DHT22;4587;51.434;6.788;2023-04-03T06:46:59;8.20;99.90
9103;DHT22;4587;51.434;6.788;2023-04-03T06:49:24;8.30;99.90
9103;DHT22;4587;51.434;6.788;2023-04-03T06:51:50;8.60;99.90
9103;DHT22;4587;51.434;6.788;2023-04-03T06:54:17;9.20;99.90
9103;DHT22;4587;51.434;6.788;2023-04-03T06:56:43;10.20;99.90
9103;DHT22;4587;51.434;6.788;2023-04-03T06:59:12;11.10;99.90
9103;DHT22;4587;51.434;6.788;2023-04-03T07:01:39;12.80;99.90
9103;DHT22;4587;51.434;6.788;2023-04-03T07:04:06;12.40;99.90
9103;DHT22;4587;51.434;6.788;2023-04-03T07:06:32;12.50;99.90
9103;DHT22;4587;51.434;6.788;2023-04-03T07:08:59;12.70;99.60
9103;DHT22;4587;51.434;6.788;2023-04-03T07:11:24;13.30;98.70
9103;DHT22;4587;51.434;6.788;2023-04-03T07:13:51;13.90;97.20
9103;DHT22;4587;51.434;6.788;2023-04-03T07:16:17;14.00;96.00
9103;DHT22;4587;51.434;6.788;2023-04-03T07:18:43;14.50;95.30
9103;DHT22;4587;51.434;6.788;2023-04-03T07:21:09;14.50;94.50
9103;DHT22;4587;51.434;6.788;2023-04-03T07:23:35;14.40;94.00
9103;DHT22;4587;51.434;6.788;2023-04-03T07:26:00;14.60;94.00
9103;DHT22;4587;51.434;6.788;2023-04-03T07:28:27;14.30;93.80
9103;DHT22;4587;51.434;6.788;2023-04-03T07:30:58;14.50;94.80
9103;DHT22;4587;51.434;6.788;2023-04-03T07:33:25;14.90;93.70
9103;DHT22;4587;51.434;6.788;2023-04-03T07:35:51;14.70;93.50
9103;DHT22;4587;51.434;6.788;2023-04-03T07:38:17;14.60;92.90
9103;DHT22;4587;51.434;6.788;2023-04-03T07:40:47;15.10;92.60
9103;DHT22;4587;51.434;6.788;2023-04-03T07:43:14;15.50;92.10
9103;DHT22;4587;51.434;6.788;2023-04-03T07:45:41;15.90;91.60
9103;DHT22;4587;51.434;6.788;2023-04-03T07:48:07;16.50;91.40
9103;DHT22;4587;51.434;6.788;2023-04-03T07:50:33;16.40;88.50
9103;DHT22;4587;51.434;6.788;2023-04-03T07:52:59;16.80;90.30
9103;DHT22;4587;51.434;6.788;2023-04-03T07:55:27;17.10;87.80
9103;DHT22;4587;51.434;6.788;2023-04-03T07:57:53;16.50;85.30
9103;DHT22;4587;51.434;6.788;2023-04-03T08:00:19;16.50;86.30
9103;DHT22;4587;51.434;6.788;2023-04-03T08:02:45;16.70;86.10
9103;DHT22;4587;51.434;6.788;2023-04-03T08:05:18;17.20;83.80
9103;DHT22;4587;51.434;6.788;2023-04-03T08:07:44;17.00;83.80
9103;DHT22;4587;51.434;6.788;2023-04-03T08:10:09;17.00;83.90
9103;DHT22;4587;51.434;6.788;2023-04-03T08:12:35;17.40;79.20
9103;DHT22;4587;51.434;6.788;2023-04-03T08:15:03;17.00;74.30
9103;DHT22;4587;51.434;6.788;2023-04-03T08:17:28;17.20;76.40
9103;DHT22;4587;51.434;6.788;2023-04-03T08:19:54;17.60;72.20
9103;DHT22;4587;51.434;6.788;2023-04-03T08:22:20;17.40;68.80
9103;DHT22;4587;51.434;6.788;2023-04-03T08:24:46;17.70;69.50
9103;DHT22;4587;51.434;6.788;2023-04-03T08:27:11;17.80;64.30
9103;DHT22;4587;51.434;6.788;2023-04-03T08:29:37;17.30;64.60
9103;DHT22;4587;51.434;6.788;2023-04-03T08:32:04;16.40;63.10
9103;DHT22;4587;51.434;6.788;2023-04-03T08:34:30;15.10;64.80
9103;DHT22;4587;51.434;6.788;2023-04-03T08:36:56;13.30;66.70
9103;DHT22;4587;51.434;6.788;2023-04-03T08:39:25;12.10;69.00
9103;DHT22;4587;51.434;6.788;2023-04-03T08:41:50;11.30;69.20
9103;DHT22;4587;51.434;6.788;2023-04-03T08:44:24;10.80;70.50
9103;DHT22;4587;51.434;6.788;2023-04-03T08:49:40;9.90;76.70
9103;DHT22;4587;51.434;6.788;2023-04-03T08:52:38;9.50;79.70
9103;DHT22;4587;51.434;6.788;2023-04-03T08:57:49;9.60;80.70
9103;DHT22;4587;51.434;6.788;2023-04-03T09:00:19;9.60;81.50
9103;DHT22;4587;51.434;6.788;2023-04-03T09:02:51;9.50;78.80
9103;DHT22;4587;51.434;6.788;2023-04-03T09:10:41;9.40;79.50
9103;DHT22;4587;51.434;6.788;2023-04-03T09:13:24;9.50;81.50
9103;DHT22;4587;51.434;6.788;2023-04-03T09:15:53;9.60;80.90
9103;DHT22;4587;51.434;6.788;2023-04-03T09:18:32;9.70;81.50
9103;DHT22;4587;51.434;6.788;2023-04-03T09:21:20;9.90;78.10
9103;DHT22;4587;51.434;6.788;2023-04-03T09:23:53;9.90;76.70
9103;DHT22;4587;51.434;6.788;2023-04-03T09:26:51;9.70;75.80
9103;DHT22;4587;51.434;6.788;2023-04-03T09:29:23;9.80;76.20
9103;DHT22;4587;51.434;6.788;2023-04-03T09:31:56;9.80;73.30
9103;DHT22;4587;51.434;6.788;2023-04-03T09:34:28;9.70;73.90
9103;DHT22;4587;51.434;6.788;2023-04-03T09:36:57;9.70;70.60
9103;DHT22;4587;51.434;6.788;2023-04-03T09:39:51;9.70;68.70
9103;DHT22;4587;51.434;6.788;2023-04-03T09:42:21;9.50;68.10
9103;DHT22;4587;51.434;6.788;2023-04-03T09:44:56;9.20;65.20
9103;DHT22;4587;51.434;6.788;2023-04-03T09:47:27;9.20;66.60
9103;DHT22;4587;51.434;6.788;2023-04-03T09:52:39;9.20;67.20
9103;DHT22;4587;51.434;6.788;2023-04-03T09:55:08;9.40;67.00
9103;DHT22;4587;51.434;6.788;2023-04-03T09:57:39;9.50;67.10
9103;DHT22;4587;51.434;6.788;2023-04-03T10:00:05;9.40;67.40
9103;DHT22;4587;51.434;6.788;2023-04-03T10:05:03;9.30;63.40
9103;DHT22;4587;51.434;6.788;2023-04-03T10:07:38;9.20;63.70
9103;DHT22;4587;51.434;6.788;2023-04-03T10:10:22;9.20;63.80
9103;DHT22;4587;51.434;6.788;2023-04-03T10:13:17;9.20;62.00
9103;DHT22;4587;51.434;6.788;2023-04-03T10:15:51;9.00;63.20
9103;DHT22;4587;51.434;6.788;2023-04-03T10:21:06;9.30;62.90
9103;DHT22;4587;51.434;6.788;2023-04-03T10:23:42;9.20;60.80
9103;DHT22;4587;51.434;6.788;2023-04-03T10:34:47;8.80;61.60
9103;DHT22;4587;51.434;6.788;2023-04-03T10:37:25;8.90;64.40
9103;DHT22;4587;51.434;6.788;2023-04-03T10:48:14;9.10;67.10
9103;DHT22;4587;51.434;6.788;2023-04-03T10:53:26;9.30;63.90
9103;DHT22;4587;51.434;6.788;2023-04-03T10:56:13;9.30;64.40
9103;DHT22;4587;51.434;6.788;2023-04-03T10:58:47;9.20;65.70
9103;DHT22;4587;51.434;6.788;2023-04-03T11:01:24;9.10;65.30
9103;DHT22;4587;51.434;6.788;2023-04-03T11:03:58;9.10;67.10
9103;DHT22;4587;51.434;6.788;2023-04-03T11:06:27;9.10;66.20
9103;DHT22;4587;51.434;6.788;2023-04-03T11:11:41;9.20;68.40
9103;DHT22;4587;51.434;6.788;2023-04-03T11:14:28;9.10;67.50
9103;DHT22;4587;51.434;6.788;2023-04-03T11:20:00;9.10;67.10
9103;DHT22;4587;51.434;6.788;2023-04-03T11:22:39;8.90;68.10
9103;DHT22;4587;51.434;6.788;2023-04-03T11:30:13;9.00;71.10
9103;DHT22;4587;51.434;6.788;2023-04-03T11:33:05;9.10;71.30
9103;DHT22;4587;51.434;6.788;2023-04-03T11:35:29;9.10;71.40
9103;DHT22;4587;51.434;6.788;2023-04-03T11:37:56;9.10;72.20
9103;DHT22;4587;51.434;6.788;2023-04-03T11:40:29;9.10;73.10
9103;DHT22;4587;51.434;6.788;2023-04-03T11:43:20;9.10;72.10
9103;DHT22;4587;51.434;6.788;2023-04-03T11:46:12;9.30;71.50
9103;DHT22;4587;51.434;6.788;2023-04-03T11:48:47;9.30;72.60
9103;DHT22;4587;51.434;6.788;2023-04-03T11:53:42;9.20;71.80
9103;DHT22;4587;51.434;6.788;2023-04-03T12:01:47;9.20;71.90
9103;DHT22;4587;51.434;6.788;2023-04-03T12:04:15;9.30;72.40
9103;DHT22;4587;51.434;6.788;2023-04-03T12:06:59;9.30;70.70
9103;DHT22;4587;51.434;6.788;2023-04-03T12:14:51;9.40;70.90
9103;DHT22;4587;51.434;6.788;2023-04-03T12:17:25;9.40;70.80
9103;DHT22;4587;51.434;6.788;2023-04-03T12:19:51;9.50;69.90
9103;DHT22;4587;51.434;6.788;2023-04-03T12:22:18;9.30;69.90
9103;DHT22;4587;51.434;6.788;2023-04-03T12:24:48;9.30;70.90
9103;DHT22;4587;51.434;6.788;2023-04-03T12:32:40;9.30;69.80
9103;DHT22;4587;51.434;6.788;2023-04-03T12:46:23;9.50;70.60
9103;DHT22;4587;51.434;6.788;2023-04-03T12:51:15;9.60;67.60
9103;DHT22;4587;51.434;6.788;2023-04-03T12:53:44;9.70;69.20
9103;DHT22;4587;51.434;6.788;2023-04-03T12:56:29;9.80;69.10
9103;DHT22;4587;51.434;6.788;2023-04-03T12:59:25;9.90;69.40
9103;DHT22;4587;51.434;6.788;2023-04-03T13:02:02;9.90;69.70
9103;DHT22;4587;51.434;6.788;2023-04-03T13:04:30;9.70;67.70
9103;DHT22;4587;51.434;6.788;2023-04-03T13:06:56;9.70;69.40
9103;DHT22;4587;51.434;6.788;2023-04-03T13:09:30;9.80;68.70
9103;DHT22;4587;51.434;6.788;2023-04-03T13:14:25;9.90;69.50
9103;DHT22;4587;51.434;6.788;2023-04-03T13:17:14;9.80;67.80
9103;DHT22;4587;51.434;6.788;2023-04-03T13:19:41;9.90;67.90
9103;DHT22;4587;51.434;6.788;2023-04-03T13:24:46;9.80;68.60
9103;DHT22;4587;51.434;6.788;2023-04-03T13:27:13;9.80;68.90
9103;DHT22;4587;51.434;6.788;2023-04-03T13:29:39;9.80;68.00
9103;DHT22;4587;51.434;6.788;2023-04-03T13:32:06;9.80;68.70
9103;DHT22;4587;51.434;6.788;2023-04-03T13:34:38;9.80;66.20
9103;DHT22;4587;51.434;6.788;2023-04-03T13:37:06;9.80;66.50
9103;DHT22;4587;51.434;6.788;2023-04-03T13:39:38;9.70;66.00
9103;DHT22;4587;51.434;6.788;2023-04-03T13:42:23;9.70;67.40
9103;DHT22;4587;51.434;6.788;2023-04-03T13:44:49;9.80;66.80
9103;DHT22;4587;51.434;6.788;2023-04-03T13:47:18;9.80;68.20
9103;DHT22;4587;51.434;6.788;2023-04-03T13:49:59;9.80;68.50
9103;DHT22;4587;51.434;6.788;2023-04-03T13:52:45;9.90;69.30
9103;DHT22;4587;51.434;6.788;2023-04-03T13:55:19;10.00;68.40
9103;DHT22;4587;51.434;6.788;2023-04-03T13:57:54;10.00;67.30
9103;DHT22;4587;51.434;6.788;2023-04-03T14:00:29;10.10;68.40
9103;DHT22;4587;51.434;6.788;2023-04-03T14:02:57;10.10;67.70
9103;DHT22;4587;51.434;6.788;2023-04-03T14:05:24;10.10;67.60
9103;DHT22;4587;51.434;6.788;2023-04-03T14:07:51;10.10;66.00
9103;DHT22;4587;51.434;6.788;2023-04-03T14:10:17;10.00;65.50
9103;DHT22;4587;51.434;6.788;2023-04-03T14:12:43;10.00;66.50
9103;DHT22;4587;51.434;6.788;2023-04-03T14:15:23;10.10;66.90
9103;DHT22;4587;51.434;6.788;2023-04-03T14:17:50;10.20;66.70
9103;DHT22;4587;51.434;6.788;2023-04-03T14:20:19;10.10;66.00
9103;DHT22;4587;51.434;6.788;2023-04-03T14:22:46;10.00;65.40
9103;DHT22;4587;51.434;6.788;2023-04-03T14:25:12;10.00;66.80
9103;DHT22;4587;51.434;6.788;2023-04-03T14:27:44;10.00;66.90
9103;DHT22;4587;51.434;6.788;2023-04-03T14:30:23;10.00;69.00
9103;DHT22;4587;51.434;6.788;2023-04-03T14:32:50;10.00;68.30
9103;DHT22;4587;51.434;6.788;2023-04-03T14:35:17;9.90;71.60
9103;DHT22;4587;51.434;6.788;2023-04-03T14:37:44;10.00;69.60
9103;DHT22;4587;51.434;6.788;2023-04-03T14:40:16;10.00;69.40
9103;DHT22;4587;51.434;6.788;2023-04-03T14:42:42;9.90;70.70
9103;DHT22;4587;51.434;6.788;2023-04-03T14:45:11;10.10;69.70
9103;DHT22;4587;51.434;6.788;2023-04-03T14:47:58;10.10;69.50
9103;DHT22;4587;51.434;6.788;2023-04-03T14:50:26;10.10;69.50
9103;DHT22;4587;51.434;6.788;2023-04-03T14:52:56;10.20;70.20
9103;DHT22;4587;51.434;6.788;2023-04-03T14:55:23;10.10;70.30
9103;DHT22;4587;51.434;6.788;2023-04-03T14:57:49;10.30;71.30
9103;DHT22;4587;51.434;6.788;2023-04-03T15:00:17;10.10;70.00
9103;DHT22;4587;51.434;6.788;2023-04-03T15:02:44;10.00;71.30
9103;DHT22;4587;51.434;6.788;2023-04-03T15:05:11;10.10;70.40
9103;DHT22;4587;51.434;6.788;2023-04-03T15:07:42;10.10;70.30
9103;DHT22;4587;51.434;6.788;2023-04-03T15:12:40;10.00;69.30
9103;DHT22;4587;51.434;6.788;2023-04-03T15:15:07;9.90;71.50
9103;DHT22;4587;51.434;6.788;2023-04-03T15:17:34;9.80;72.50
9103;DHT22;4587;51.434;6.788;2023-04-03T15:20:01;9.80;71.80
9103;DHT22;4587;51.434;6.788;2023-04-03T15:22:26;9.90;71.40
9103;DHT22;4587;51.434;6.788;2023-04-03T15:24:53;9.90;70.40
9103;DHT22;4587;51.434;6.788;2023-04-03T15:27:19;9.70;69.70
9103;DHT22;4587;51.434;6.788;2023-04-03T15:29:45;9.70;71.40
9103;DHT22;4587;51.434;6.788;2023-04-03T15:32:12;9.70;72.10
9103;DHT22;4587;51.434;6.788;2023-04-03T15:34:38;9.70;70.50
9103;DHT22;4587;51.434;6.788;2023-04-03T15:37:05;9.70;70.30
9103;DHT22;4587;51.434;6.788;2023-04-03T15:39:31;9.60;70.70
9103;DHT22;4587;51.434;6.788;2023-04-03T15:41:57;9.50;70.90
9103;DHT22;4587;51.434;6.788;2023-04-03T15:44:31;9.50;72.50
9103;DHT22;4587;51.434;6.788;2023-04-03T15:46:58;9.50;71.90
9103;DHT22;4587;51.434;6.788;2023-04-03T15:49:24;9.50;72.10
9103;DHT22;4587;51.434;6.788;2023-04-03T15:51:50;9.50;71.80
9103;DHT22;4587;51.434;6.788;2023-04-03T15:54:16;9.50;72.60
9103;DHT22;4587;51.434;6.788;2023-04-03T15:56:42;9.60;72.20
9103;DHT22;4587;51.434;6.788;2023-04-03T15:59:08;9.50;73.20
9103;DHT22;4587;51.434;6.788;2023-04-03T16:01:33;9.60;74.00
9103;DHT22;4587;51.434;6.788;2023-04-03T16:04:00;9.60;72.90
9103;DHT22;4587;51.434;6.788;2023-04-03T16:06:26;9.60;72.70
9103;DHT22;4587;51.434;6.788;2023-04-03T16:08:54;9.50;73.60
9103;DHT22;4587;51.434;6.788;2023-04-03T16:11:24;9.50;74.40
9103;DHT22;4587;51.434;6.788;2023-04-03T16:13:49;9.50;75.10
9103;DHT22;4587;51.434;6.788;2023-04-03T16:16:15;9.50;74.30
9103;DHT22;4587;51.434;6.788;2023-04-03T16:18:41;9.50;74.40
9103;DHT22;4587;51.434;6.788;2023-04-03T16:21:07;9.40;74.00
9103;DHT22;4587;51.434;6.788;2023-04-03T16:23:34;9.40;74.60
9103;DHT22;4587;51.434;6.788;2023-04-03T16:26:00;9.30;74.20
9103;DHT22;4587;51.434;6.788;2023-04-03T16:28:25;9.30;74.20
9103;DHT22;4587;51.434;6.788;2023-04-03T16:30:51;9.20;73.90
9103;DHT22;4587;51.434;6.788;2023-04-03T16:33:17;9.20;75.60
9103;DHT22;4587;51.434;6.788;2023-04-03T16:35:43;9.30;76.00
9103;DHT22;4587;51.434;6.788;2023-04-03T16:38:09;9.30;74.90
9103;DHT22;4587;51.434;6.788;2023-04-03T16:40:35;9.30;74.20
9103;DHT22;4587;51.434;6.788;2023-04-03T16:43:02;9.20;74.00
9103;DHT22;4587;51.434;6.788;2023-04-03T16:45:28;9.20;74.80
9103;DHT22;4587;51.434;6.788;2023-04-03T16:47:53;9.10;75.30
9103;DHT22;4587;51.434;6.788;2023-04-03T16:50:19;9.10;75.50
9103;DHT22;4587;51.434;6.788;2023-04-03T16:52:48;9.00;76.10
9103;DHT22;4587;51.434;6.788;2023-04-03T16:55:14;8.90;77.00
9103;DHT22;4587;51.434;6.788;2023-04-03T16:57:39;8.90;77.00
9103;DHT22;4587;51.434;6.788;2023-04-03T17:00:06;8.90;76.10
9103;DHT22;4587;51.434;6.788;2023-04-03T17:02:32;8.90;75.00
9103;DHT22;4587;51.434;6.788;2023-04-03T17:04:58;8.90;74.80
9103;DHT22;4587;51.434;6.788;2023-04-03T17:07:25;8.90;74.90
9103;DHT22;4587;51.434;6.788;2023-04-03T17:09:51;8.80;75.10
9103;DHT22;4587;51.434;6.788;2023-04-03T17:12:19;8.70;76.00
9103;DHT22;4587;51.434;6.788;2023-04-03T17:14:45;8.80;76.50
9103;DHT22;4587;51.434;6.788;2023-04-03T17:17:13;8.70;76.80
9103;DHT22;4587;51.434;6.788;2023-04-03T17:19:39;8.60;77.10
9103;DHT22;4587;51.434;6.788;2023-04-03T17:22:07;8.60;77.70
9103;DHT22;4587;51.434;6.788;2023-04-03T17:24:34;8.50;78.10
9103;DHT22;4587;51.434;6.788;2023-04-03T17:27:00;8.60;76.70
9103;DHT22;4587;51.434;6.788;2023-04-03T17:29:25;8.60;75.90
9103;DHT22;4587;51.434;6.788;2023-04-03T17:31:51;8.50;75.20
9103;DHT22;4587;51.434;6.788;2023-04-03T17:34:17;8.50;74.70
9103;DHT22;4587;51.434;6.788;2023-04-03T17:36:43;8.30;75.00
9103;DHT22;4587;51.434;6.788;2023-04-03T17:39:09;8.20;76.00
9103;DHT22;4587;51.434;6.788;2023-04-03T17:41:35;8.20;75.10
9103;DHT22;4587;51.434;6.788;2023-04-03T17:44:00;8.30;75.50
9103;DHT22;4587;51.434;6.788;2023-04-03T17:46:26;8.20;76.30
9103;DHT22;4587;51.434;6.788;2023-04-03T17:48:52;8.20;76.30
9103;DHT22;4587;51.434;6.788;2023-04-03T17:51:21;8.00;77.10
9103;DHT22;4587;51.434;6.788;2023-04-03T17:53:47;7.90;77.70
9103;DHT22;4587;51.434;6.788;2023-04-03T17:56:16;7.90;77.70
9103;DHT22;4587;51.434;6.788;2023-04-03T17:58:42;7.90;77.40